createdAt,value
2018-08-16T00:00:11.885Z,4.80
2018-08-16T00:02:46.754Z,5.17
2018-08-16T00:05:21.022Z,5.97
2018-08-16T00:07:55.426Z,5.87
2018-08-16T00:10:29.686Z,5.40
2018-08-16T00:13:03.979Z,5.70
2018-08-16T00:15:38.210Z,6.17
2018-08-16T00:18:12.494Z,5.13
2018-08-16T00:20:46.777Z,5.57
2018-08-16T00:23:21.141Z,5.40
2018-08-16T00:25:55.462Z,5.80
2018-08-16T00:28:29.727Z,5.90
2018-08-16T00:31:04.085Z,8.40
2018-08-16T00:33:38.395Z,8.57
2018-08-16T00:36:12.835Z,6.10
2018-08-16T00:38:47.126Z,5.03
2018-08-16T00:41:21.525Z,5.67
2018-08-16T00:43:55.828Z,5.67
2018-08-16T00:46:30.268Z,7.93
2018-08-16T00:49:04.493Z,7.03
2018-08-16T00:51:38.784Z,9.00
2018-08-16T00:54:13.066Z,5.23
2018-08-16T00:56:47.328Z,5.43
2018-08-16T00:59:21.625Z,6.73
2018-08-16T01:01:55.981Z,6.20
2018-08-16T01:04:30.191Z,8.07
2018-08-16T01:07:04.486Z,6.07
2018-08-16T01:09:38.726Z,4.67
2018-08-16T01:12:13.002Z,4.87
2018-08-16T01:14:47.346Z,5.40
2018-08-16T01:17:21.678Z,5.23
2018-08-16T01:19:55.836Z,5.23
2018-08-16T01:22:30.158Z,4.17
2018-08-16T01:25:05.577Z,5.37
2018-08-16T01:27:39.886Z,5.87
2018-08-16T01:30:14.214Z,7.00
2018-08-16T01:32:48.597Z,5.13
2018-08-16T01:35:22.837Z,5.00
2018-08-16T01:37:57.285Z,6.20
2018-08-16T01:40:31.598Z,5.93
2018-08-16T01:43:05.938Z,5.93
2018-08-16T01:45:40.090Z,6.63
2018-08-16T01:48:14.465Z,4.93
2018-08-16T01:50:48.767Z,5.43
2018-08-16T01:53:23.046Z,6.00
2018-08-16T01:55:57.374Z,6.37
2018-08-16T01:58:31.734Z,5.60
2018-08-16T02:01:06.075Z,7.03
2018-08-16T02:03:40.385Z,4.70
2018-08-16T02:06:14.677Z,5.53
2018-08-16T02:08:49.007Z,6.63
2018-08-16T02:11:23.314Z,6.17
2018-08-16T02:13:57.466Z,5.07
2018-08-16T02:16:31.801Z,5.67
2018-08-16T02:19:06.406Z,5.00
2018-08-16T02:21:40.726Z,4.80
2018-08-16T02:24:14.990Z,5.53
2018-08-16T02:26:49.283Z,6.50
2018-08-16T02:29:23.546Z,9.63
2018-08-16T02:31:57.827Z,6.37
2018-08-16T02:34:32.098Z,7.70
2018-08-16T02:37:06.507Z,6.40
2018-08-16T02:39:40.715Z,5.90
2018-08-16T02:42:15.109Z,7.87
2018-08-16T02:44:49.491Z,5.23
2018-08-16T02:47:23.748Z,5.97
2018-08-16T02:49:58.050Z,7.90
2018-08-16T02:52:32.439Z,5.80
2018-08-16T02:55:07.045Z,5.00
2018-08-16T02:57:41.218Z,6.90
2018-08-16T03:00:15.504Z,5.63
2018-08-16T03:02:49.850Z,5.40
2018-08-16T03:05:24.104Z,6.63
2018-08-16T03:07:58.530Z,8.07
2018-08-16T03:10:32.827Z,8.00
2018-08-16T03:13:07.243Z,5.60
2018-08-16T03:15:41.518Z,6.03
2018-08-16T03:18:15.881Z,5.17
2018-08-16T03:20:50.259Z,5.67
2018-08-16T03:23:24.606Z,5.33
2018-08-16T03:25:58.849Z,6.90
2018-08-16T03:28:33.255Z,12.40
2018-08-16T03:31:07.590Z,7.07
2018-08-16T03:33:41.889Z,5.57
2018-08-16T03:36:16.103Z,6.03
2018-08-16T03:38:50.427Z,5.73
2018-08-16T03:41:24.738Z,7.90
2018-08-16T03:43:59.083Z,5.67
2018-08-16T03:46:33.393Z,5.77
2018-08-16T03:49:07.680Z,6.70
2018-08-16T03:51:41.941Z,6.50
2018-08-16T03:54:16.282Z,7.87
2018-08-16T03:56:50.687Z,7.43
2018-08-16T03:59:24.903Z,7.83
2018-08-16T04:01:59.062Z,8.43
2018-08-16T04:04:33.371Z,6.42
2018-08-16T04:07:07.591Z,7.07
2018-08-16T04:09:41.801Z,6.27
2018-08-16T04:12:16.126Z,5.97
2018-08-16T04:14:50.335Z,7.87
2018-08-16T04:17:27.802Z,6.33
2018-08-16T04:20:02.322Z,5.83
2018-08-16T04:22:36.574Z,6.27
2018-08-16T04:25:10.869Z,6.03
2018-08-16T04:27:45.202Z,9.97
2018-08-16T04:30:19.402Z,9.77
2018-08-16T04:32:53.643Z,10.77
2018-08-16T04:35:28.048Z,8.07
2018-08-16T04:38:02.227Z,6.53
2018-08-16T04:40:36.693Z,10.33
2018-08-16T04:43:10.984Z,8.60
2018-08-16T04:45:45.362Z,7.20
2018-08-16T04:48:19.519Z,7.70
2018-08-16T04:50:53.811Z,6.90
2018-08-16T04:53:28.049Z,7.27
2018-08-16T04:56:02.365Z,6.33
2018-08-16T04:58:36.712Z,9.00
2018-08-16T05:01:11.108Z,6.90
2018-08-16T05:03:45.302Z,7.13
2018-08-16T05:06:19.594Z,7.30
2018-08-16T05:08:53.875Z,7.70
2018-08-16T05:11:28.278Z,7.80
2018-08-16T05:14:02.623Z,6.93
2018-08-16T05:16:37.006Z,7.10
2018-08-16T05:19:11.235Z,8.07
2018-08-16T05:21:45.582Z,7.77
2018-08-16T05:24:19.850Z,9.70
2018-08-16T05:26:54.074Z,9.10
2018-08-16T05:29:28.351Z,10.57
2018-08-16T05:32:02.665Z,8.60
2018-08-16T05:34:37.014Z,8.73
2018-08-16T05:37:11.279Z,8.80
2018-08-16T05:39:45.570Z,10.47
2018-08-16T05:42:19.846Z,8.97
2018-08-16T05:44:54.207Z,8.00
2018-08-16T05:47:28.411Z,10.07
2018-08-16T05:50:02.783Z,8.93
2018-08-16T05:52:37.022Z,11.33
2018-08-16T05:55:11.300Z,9.40
2018-08-16T05:57:45.587Z,13.53
2018-08-16T06:00:19.810Z,9.07
2018-08-16T06:02:54.014Z,8.83
2018-08-16T06:05:29.038Z,9.60
2018-08-16T06:08:03.235Z,11.70
2018-08-16T06:10:37.607Z,11.60
2018-08-16T06:13:11.901Z,9.83
2018-08-16T06:15:46.094Z,11.60
2018-08-16T06:18:20.435Z,9.97
2018-08-16T06:20:54.809Z,10.33
2018-08-16T06:23:29.022Z,9.47
2018-08-16T06:26:03.450Z,9.90
2018-08-16T06:28:37.805Z,9.37
2018-08-16T06:31:12.247Z,9.33
2018-08-16T06:33:46.486Z,10.17
2018-08-16T06:36:20.966Z,10.37
2018-08-16T06:38:55.210Z,11.13
2018-08-16T06:41:29.399Z,12.57
2018-08-16T06:44:03.881Z,10.53
2018-08-16T06:46:38.305Z,11.80
2018-08-16T06:49:12.689Z,12.83
2018-08-16T06:51:46.993Z,11.17
2018-08-16T06:54:21.345Z,12.37
2018-08-16T06:56:55.752Z,14.50
2018-08-16T06:59:30.034Z,13.83
2018-08-16T07:02:04.662Z,15.43
2018-08-16T07:04:38.897Z,14.17
2018-08-16T07:07:13.321Z,14.90
2018-08-16T07:09:47.541Z,14.03
2018-08-16T07:12:21.955Z,15.77
2018-08-16T07:14:56.178Z,19.23
2018-08-16T07:17:30.434Z,12.90
2018-08-16T07:20:05.377Z,12.93
2018-08-16T07:22:39.696Z,13.97
2018-08-16T07:25:14.042Z,18.63
2018-08-16T07:27:48.446Z,15.07
2018-08-16T07:30:22.701Z,15.87
2018-08-16T07:32:57.017Z,13.57
2018-08-16T07:35:31.232Z,13.63
2018-08-16T07:38:05.771Z,12.90
2018-08-16T07:40:39.994Z,13.20
2018-08-16T07:43:14.462Z,10.10
2018-08-16T07:45:49.128Z,11.73
2018-08-16T07:48:23.583Z,13.03
2018-08-16T07:50:57.950Z,12.67
2018-08-16T07:53:32.206Z,11.60
2018-08-16T07:56:06.683Z,10.10
2018-08-16T07:58:41.160Z,8.40
2018-08-16T08:01:15.628Z,7.90
2018-08-16T08:03:49.974Z,7.80
2018-08-16T08:06:24.348Z,10.30
2018-08-16T08:08:59.077Z,8.30
2018-08-16T08:11:33.712Z,10.60
2018-08-16T08:14:08.210Z,9.13
2018-08-16T08:16:42.486Z,8.57
2018-08-16T08:19:16.883Z,7.43
2018-08-16T08:21:51.269Z,9.97
2018-08-16T08:24:25.612Z,7.43
2018-08-16T08:26:59.914Z,9.70
2018-08-16T08:29:34.326Z,8.50
2018-08-16T08:32:08.546Z,8.07
2018-08-16T08:34:42.706Z,7.47
2018-08-16T08:37:28.640Z,6.07
2018-08-16T08:40:02.972Z,7.67
2018-08-16T08:42:37.382Z,7.67
2018-08-16T08:45:11.639Z,6.50
2018-08-16T08:47:47.966Z,7.60
2018-08-16T08:50:22.303Z,7.33
2018-08-16T08:53:07.964Z,7.07
2018-08-16T08:55:53.754Z,6.53
2018-08-16T08:58:39.950Z,9.43
2018-08-16T09:01:14.138Z,5.93
2018-08-16T09:03:48.428Z,5.90
2018-08-16T09:06:22.837Z,4.57
2018-08-16T09:08:57.110Z,6.63
2018-08-16T09:11:42.762Z,5.73
2018-08-16T09:14:28.416Z,4.83
2018-08-16T09:17:02.698Z,8.17
2018-08-16T09:19:36.999Z,6.13
2018-08-16T09:22:11.302Z,5.50
2018-08-16T09:24:45.703Z,4.37
2018-08-16T09:27:19.989Z,6.17
2018-08-16T09:30:13.850Z,5.37
2018-08-16T09:32:59.609Z,5.17
2018-08-16T09:35:34.043Z,4.77
2018-08-16T09:38:08.231Z,5.67
2018-08-16T09:40:42.530Z,5.10
2018-08-16T09:43:16.700Z,4.67
2018-08-16T09:47:03.787Z,4.80
2018-08-16T09:49:40.134Z,9.83
2018-08-16T09:52:15.012Z,6.60
2018-08-16T09:54:49.655Z,5.67
2018-08-16T09:57:23.970Z,5.27
2018-08-16T09:59:58.303Z,4.73
2018-08-16T10:02:32.622Z,6.13
2018-08-16T10:05:06.986Z,4.43
2018-08-16T10:07:41.230Z,6.50
2018-08-16T10:10:15.624Z,6.23
2018-08-16T10:12:49.951Z,4.43
2018-08-16T10:15:24.259Z,6.50
2018-08-16T10:17:58.565Z,5.07
2018-08-16T10:20:32.810Z,3.97
2018-08-16T10:23:07.128Z,6.10
2018-08-16T10:25:41.426Z,4.87
2018-08-16T10:28:15.763Z,6.10
2018-08-16T10:30:50.306Z,4.87
2018-08-16T10:33:24.654Z,4.60
2018-08-16T10:35:59.046Z,3.73
2018-08-16T10:38:33.261Z,4.00
2018-08-16T10:41:07.513Z,6.50
2018-08-16T10:43:41.731Z,4.93
2018-08-16T10:46:16.103Z,5.70
2018-08-16T10:48:50.339Z,5.47
2018-08-16T10:51:24.540Z,6.53
2018-08-16T10:53:58.735Z,4.30
2018-08-16T10:56:33.057Z,3.70
2018-08-16T10:59:07.364Z,4.13
2018-08-16T11:01:41.693Z,4.00
2018-08-16T11:04:15.894Z,4.40
2018-08-16T11:06:50.190Z,3.80
2018-08-16T11:09:24.399Z,3.30
2018-08-16T11:11:58.710Z,6.33
2018-08-16T11:14:33.000Z,3.60
2018-08-16T11:17:07.318Z,4.47
2018-08-16T11:19:41.478Z,4.33
2018-08-16T11:22:15.690Z,3.90
2018-08-16T11:24:50.065Z,3.77
2018-08-16T11:27:24.386Z,5.03
2018-08-16T11:29:58.662Z,4.97
2018-08-16T11:32:32.949Z,6.57
2018-08-16T11:35:07.334Z,4.33
2018-08-16T11:37:41.654Z,3.37
2018-08-16T11:40:15.933Z,3.80
2018-08-16T11:42:50.221Z,3.90
2018-08-16T11:45:24.474Z,6.23
2018-08-16T11:47:58.758Z,3.70
2018-08-16T11:50:33.127Z,5.43
2018-08-16T11:53:07.758Z,5.37
2018-08-16T11:55:42.099Z,8.70
2018-08-16T11:58:16.475Z,3.87
2018-08-16T12:00:50.798Z,5.13
2018-08-16T12:03:25.135Z,6.10
2018-08-16T12:05:59.535Z,3.87
2018-08-16T12:08:33.763Z,3.40
2018-08-16T12:11:08.393Z,5.67
2018-08-16T12:13:42.627Z,7.40
2018-08-16T12:16:17.041Z,4.03
2018-08-16T12:18:51.630Z,5.17
2018-08-16T12:21:25.909Z,4.27
2018-08-16T12:24:00.206Z,5.40
2018-08-16T12:26:34.566Z,4.20
2018-08-16T12:29:08.898Z,8.27
2018-08-16T12:31:43.302Z,5.13
2018-08-16T12:34:17.466Z,3.73
2018-08-16T12:36:51.882Z,4.23
2018-08-16T12:39:26.327Z,5.87
2018-08-16T12:42:00.606Z,3.70
2018-08-16T12:44:34.994Z,6.73
2018-08-16T12:47:09.285Z,3.37
2018-08-16T12:49:43.594Z,4.20
2018-08-16T12:52:17.966Z,3.77
2018-08-16T12:54:52.287Z,4.07
2018-08-16T12:57:26.706Z,3.97
2018-08-16T13:00:00.976Z,5.40
2018-08-16T13:02:35.373Z,4.03
2018-08-16T13:05:09.572Z,3.97
2018-08-16T13:07:43.926Z,7.57
2018-08-16T13:10:18.331Z,3.63
2018-08-16T13:12:52.663Z,5.23
2018-08-16T13:15:26.893Z,4.47
2018-08-16T13:18:01.188Z,5.47
2018-08-16T13:20:35.429Z,5.50
2018-08-16T13:23:09.674Z,3.77
2018-08-16T13:25:43.887Z,3.60
2018-08-16T13:28:18.169Z,4.77
2018-08-16T13:30:52.593Z,5.23
2018-08-16T13:33:27.486Z,4.63
2018-08-16T13:36:01.683Z,4.23
2018-08-16T13:38:35.998Z,4.13
2018-08-16T13:41:10.303Z,3.23
2018-08-16T13:43:44.575Z,4.13
2018-08-16T13:46:19.017Z,3.40
2018-08-16T13:48:53.347Z,4.80
2018-08-16T13:51:27.798Z,3.90
2018-08-16T13:54:02.046Z,3.90
2018-08-16T13:56:36.350Z,3.13
2018-08-16T13:59:10.679Z,3.50
2018-08-16T14:01:44.982Z,3.20
2018-08-16T14:04:19.210Z,3.17
2018-08-16T14:06:53.510Z,3.00
2018-08-16T14:09:27.872Z,5.03
2018-08-16T14:12:02.134Z,4.97
2018-08-16T14:14:36.407Z,3.20
2018-08-16T14:17:10.662Z,7.63
2018-08-16T14:19:44.939Z,3.60
2018-08-16T14:22:19.186Z,4.50
2018-08-16T14:24:53.586Z,4.57
2018-08-16T14:27:27.879Z,3.17
2018-08-16T14:30:02.234Z,3.13
2018-08-16T14:32:36.788Z,7.83
2018-08-16T14:35:10.950Z,3.40
2018-08-16T14:37:45.274Z,3.20
2018-08-16T14:40:19.530Z,3.00
2018-08-16T14:42:53.777Z,4.00
2018-08-16T14:45:27.998Z,6.27
2018-08-16T14:48:06.585Z,3.53
2018-08-16T14:50:41.967Z,6.57
2018-08-16T14:53:16.255Z,6.10
2018-08-16T14:55:50.510Z,4.22
2018-08-16T14:58:24.810Z,3.30
2018-08-16T15:00:59.126Z,3.77
2018-08-16T15:03:33.310Z,4.13
2018-08-16T15:06:07.732Z,4.40
2018-08-16T15:08:41.874Z,3.90
2018-08-16T15:11:16.469Z,3.57
2018-08-16T15:13:50.658Z,3.73
2018-08-16T15:16:24.966Z,4.17
2018-08-16T15:18:59.434Z,4.07
2018-08-16T15:21:33.678Z,6.73
2018-08-16T15:24:08.107Z,5.20
2018-08-16T15:26:42.410Z,5.80
2018-08-16T15:29:17.366Z,5.80
2018-08-16T15:31:52.071Z,5.10
2018-08-16T15:34:26.543Z,4.70
2018-08-16T15:37:00.791Z,5.33
2018-08-16T15:39:35.094Z,4.37
2018-08-16T15:42:09.357Z,4.77
2018-08-16T15:44:44.463Z,4.10
2018-08-16T15:47:18.783Z,3.57
2018-08-16T15:49:52.978Z,3.90
2018-08-16T15:52:27.284Z,4.17
2018-08-16T15:55:01.638Z,3.80
2018-08-16T15:57:35.881Z,4.40
2018-08-16T16:00:10.894Z,3.97
2018-08-16T16:02:45.205Z,4.37
2018-08-16T16:05:19.446Z,5.90
2018-08-16T16:07:53.591Z,4.90
2018-08-16T16:10:28.004Z,8.37
2018-08-16T16:13:02.348Z,5.67
2018-08-16T16:15:36.481Z,4.93
2018-08-16T16:18:10.813Z,5.07
2018-08-16T16:20:45.070Z,5.87
2018-08-16T16:23:19.405Z,5.20
2018-08-16T16:25:53.590Z,4.50
2018-08-16T16:28:27.766Z,3.97
2018-08-16T16:31:01.959Z,5.70
2018-08-16T16:33:36.234Z,4.90
2018-08-16T16:36:10.666Z,4.57
2018-08-16T16:38:44.937Z,6.57
2018-08-16T16:41:19.333Z,4.33
2018-08-16T16:43:53.622Z,5.77
2018-08-16T16:46:27.834Z,4.73
2018-08-16T16:49:02.077Z,4.10
2018-08-16T16:51:36.386Z,4.80
2018-08-16T16:54:10.675Z,4.80
2018-08-16T16:56:45.022Z,4.27
2018-08-16T16:59:19.342Z,7.73
2018-08-16T17:01:53.586Z,7.23
2018-08-16T17:04:27.800Z,3.73
2018-08-16T17:07:01.991Z,5.63
2018-08-16T17:09:36.326Z,5.27
2018-08-16T17:12:10.652Z,4.63
2018-08-16T17:14:44.894Z,6.03
2018-08-16T17:17:19.231Z,4.43
2018-08-16T17:19:53.523Z,6.23
2018-08-16T17:22:27.789Z,5.87
2018-08-16T17:25:02.145Z,4.90
2018-08-16T17:27:36.667Z,5.53
2018-08-16T17:30:10.935Z,7.47
2018-08-16T17:32:45.165Z,6.17
2018-08-16T17:35:19.663Z,5.17
2018-08-16T17:37:53.975Z,5.60
2018-08-16T17:40:28.513Z,10.23
2018-08-16T17:43:02.910Z,8.83
2018-08-16T17:45:37.228Z,5.10
2018-08-16T17:48:11.550Z,5.13
2018-08-16T17:50:45.778Z,9.10
2018-08-16T17:53:20.119Z,12.23
2018-08-16T17:55:54.485Z,7.20
2018-08-16T17:58:28.821Z,5.83
2018-08-16T18:01:03.145Z,10.37
2018-08-16T18:03:37.492Z,6.37
2018-08-16T18:06:11.671Z,9.83
2018-08-16T18:08:46.022Z,8.63
2018-08-16T18:11:20.285Z,7.77
2018-08-16T18:13:54.590Z,10.17
2018-08-16T18:16:28.864Z,6.77
2018-08-16T18:19:03.186Z,8.80
2018-08-16T18:21:37.445Z,6.50
2018-08-16T18:24:11.608Z,7.97
2018-08-16T18:26:45.875Z,25.97
2018-08-16T18:29:20.166Z,6.97
2018-08-16T18:31:54.493Z,7.40
2018-08-16T18:34:28.722Z,7.37
2018-08-16T18:37:02.917Z,7.70
2018-08-16T18:39:37.142Z,7.87
2018-08-16T18:42:11.437Z,10.13
2018-08-16T18:44:45.735Z,8.63
2018-08-16T18:47:20.062Z,10.37
2018-08-16T18:49:54.569Z,12.67
2018-08-16T18:52:29.155Z,10.97
2018-08-16T18:55:03.662Z,12.03
2018-08-16T18:57:37.910Z,11.03
2018-08-16T19:00:12.207Z,14.83
2018-08-16T19:02:46.505Z,11.00
2018-08-16T19:05:20.795Z,13.13
2018-08-16T19:07:55.118Z,15.70
2018-08-16T19:10:29.707Z,17.87
2018-08-16T19:13:04.013Z,14.77
2018-08-16T19:15:38.294Z,12.63
2018-08-16T19:18:12.602Z,14.67
2018-08-16T19:20:46.776Z,11.27
2018-08-16T19:23:21.106Z,10.53
2018-08-16T19:25:55.382Z,11.37
2018-08-16T19:28:29.805Z,11.03
2018-08-16T19:31:04.133Z,13.43
2018-08-16T19:33:38.494Z,12.90
2018-08-16T19:36:12.910Z,15.60
2018-08-16T19:38:47.466Z,13.13
2018-08-16T19:41:21.869Z,15.37
2018-08-16T19:43:56.057Z,14.57
2018-08-16T19:46:30.205Z,15.63
2018-08-16T19:49:05.311Z,12.47
2018-08-16T19:51:39.548Z,12.87
2018-08-16T19:54:13.799Z,12.30
2018-08-16T19:56:48.058Z,10.73
2018-08-16T19:59:22.385Z,11.27
2018-08-16T20:01:56.653Z,10.30
2018-08-16T20:04:30.978Z,17.00
2018-08-16T20:07:05.792Z,13.57
2018-08-16T20:09:40.090Z,10.53
2018-08-16T20:12:14.382Z,10.70
2018-08-16T20:14:48.721Z,10.13
2018-08-16T20:17:22.898Z,10.90
2018-08-16T20:19:57.371Z,13.77
2018-08-16T20:22:31.615Z,10.23
2018-08-16T20:25:05.905Z,10.87
2018-08-16T20:27:40.078Z,10.70
2018-08-16T20:30:14.423Z,9.50
2018-08-16T20:32:48.692Z,10.37
2018-08-16T20:35:23.215Z,11.13
2018-08-16T20:37:57.562Z,9.60
2018-08-16T20:40:31.905Z,13.13
2018-08-16T20:43:06.290Z,10.60
2018-08-16T20:45:41.439Z,10.00
2018-08-16T20:48:15.798Z,9.77
2018-08-16T20:50:50.053Z,10.03
2018-08-16T20:53:24.460Z,9.40
2018-08-16T20:55:58.618Z,12.57
2018-08-16T20:58:32.957Z,12.30
2018-08-16T21:01:07.357Z,9.77
2018-08-16T21:03:41.798Z,13.47
2018-08-16T21:06:15.990Z,9.70
2018-08-16T21:08:50.302Z,11.70
2018-08-16T21:11:24.610Z,11.10
2018-08-16T21:13:58.866Z,10.50
2018-08-16T21:16:33.204Z,10.47
2018-08-16T21:19:07.526Z,13.00
2018-08-16T21:21:41.888Z,12.53
2018-08-16T21:24:16.055Z,10.30
2018-08-16T21:26:50.354Z,14.43
2018-08-16T21:29:24.745Z,11.63
2018-08-16T21:31:59.146Z,10.63
2018-08-16T21:34:33.489Z,12.80
2018-08-16T21:37:07.678Z,12.30
2018-08-16T21:39:41.827Z,13.30
2018-08-16T21:42:16.041Z,16.47
2018-08-16T21:44:50.330Z,14.00
2018-08-16T21:47:24.650Z,14.20
2018-08-16T21:49:58.965Z,11.03
2018-08-16T21:52:33.331Z,11.77
2018-08-16T21:55:07.862Z,10.17
2018-08-16T21:57:42.188Z,14.17
2018-08-16T22:00:35.658Z,10.03
2018-08-16T22:03:09.838Z,10.30
2018-08-16T22:05:53.265Z,13.37
2018-08-16T22:08:34.511Z,10.10
2018-08-16T22:11:09.097Z,11.40
2018-08-16T22:13:43.276Z,9.80
2018-08-16T22:16:17.595Z,10.27
2018-08-16T22:18:52.042Z,12.57
2018-08-16T22:21:26.347Z,11.30
2018-08-16T22:24:00.729Z,11.23
2018-08-16T22:26:34.937Z,10.53
2018-08-16T22:29:09.196Z,10.63
2018-08-16T22:31:43.623Z,12.13
2018-08-16T22:34:17.880Z,11.50
2018-08-16T22:36:52.139Z,12.23
2018-08-16T22:39:26.430Z,11.83
2018-08-16T22:42:00.746Z,12.20
2018-08-16T22:44:34.931Z,15.53
2018-08-16T22:47:09.217Z,11.53
2018-08-16T22:49:43.488Z,12.57
2018-08-16T22:52:17.866Z,10.47
2018-08-16T22:54:52.026Z,12.40
2018-08-16T22:57:26.222Z,9.80
2018-08-16T23:00:00.372Z,11.50
2018-08-16T23:02:34.782Z,11.40
2018-08-16T23:05:09.015Z,10.03
2018-08-16T23:07:43.262Z,11.27
2018-08-16T23:10:17.557Z,13.00
2018-08-16T23:12:52.086Z,10.63
2018-08-16T23:15:26.313Z,11.10
2018-08-16T23:18:00.717Z,10.57
2018-08-16T23:20:34.990Z,11.40
2018-08-16T23:23:09.154Z,14.87
2018-08-16T23:25:43.430Z,13.97
2018-08-16T23:28:17.688Z,12.13
2018-08-16T23:30:51.950Z,10.63
2018-08-16T23:33:26.274Z,10.30
2018-08-16T23:36:00.433Z,12.13
2018-08-16T23:38:34.754Z,12.80
2018-08-16T23:41:09.027Z,11.97
2018-08-16T23:43:43.409Z,12.43
2018-08-16T23:46:17.681Z,12.03
2018-08-16T23:48:51.937Z,10.73
2018-08-16T23:51:26.150Z,12.07
2018-08-16T23:54:00.490Z,16.67
2018-08-16T23:56:34.670Z,12.87
2018-08-16T23:59:08.970Z,11.93
